Pagrindinis puslapis
METAR-TAF:

METAR-TAF

Oro uostai :

Pratica Di Mare, Italija

platuma: 41-39N, ilguma: 012-27E, Aukštis: 6 m

Dabartinis oras

Ataskaita buvo paskelbta 55 minutes, ne 11:55 UTC
Vėjas 5 kt iš Pietų/Pietvakarių
Temperatūra 13°C
Drėgmė 82%
Slėgis 1031 hPa
Matomumas: 6000 m
Mažai debesys ne aukštis 2200 ft

METAR: LIRE 251155Z 21005KT 6000 FEW022 13/10 Q1031 RMK FEW VIS MIN 6000 WIND THR13 22005KT WIND THR31 /////KT WHT

Laikas: 13:50 (12:50 UTC)

Prognozė

Ataskaita buvo paskelbta 1 valandą ir 50 minutes, ne 11:00 UTC
Prognozė galioja nuo 25 metu 12 UTC su 25 metu 21 UTC
Vėjas 3 kt nuo kintamojo kryptimis
Matomumas: 2000 m
Išsisklaidę debesys ne aukštis 500 ft
rūkana
Tapsmas
nuo 25 metu 13 UTC su 25 metu 15 UTC
Matomumas: 6000 m
Išsisklaidę debesys ne aukštis 1000 ft

TAF: LIRE 251100Z 2512/2521 VRB03KT 2000 BR SCT005 BECMG 2513/2515 6000 SCT010

Orai ataskaitas ir orų prognozės (METAR, TAF).

turimą stotys yra geltonos ir raudonos taškus žemėlapyje.

Perkelti pele per norėdami pamatyti stoties vardą.

Tada spustelėkite, norėdami matyti oro stebėjimo ir prognozės.

Norėdami pakeisti žemėlapį: spustelėkite ant žalios mygtukų su juodo kryžiaus žemyn,; žalią mygtuką su brūkšneliu, jei norite nutolinti; arba žalių rodyklių gretimoms žemėlapius.


METAR-TAF: